createdAt,value
2022-12-27T00:00:01.998Z,2
2022-12-27T00:05:01.387Z,2
2022-12-27T00:10:02.247Z,1
2022-12-27T00:15:01.604Z,1
2022-12-27T00:20:06.873Z,0
2022-12-27T00:25:01.306Z,3
2022-12-27T00:30:01.727Z,2
2022-12-27T00:35:02.260Z,2
2022-12-27T00:40:01.785Z,2
2022-12-27T00:45:02.146Z,2
2022-12-27T00:50:01.498Z,1
2022-12-27T00:55:01.872Z,3
2022-12-27T01:00:09.560Z,3
2022-12-27T01:05:01.691Z,3
2022-12-27T01:10:01.651Z,1
2022-12-27T01:15:02.182Z,1
2022-12-27T01:20:01.709Z,2
2022-12-27T01:25:02.255Z,1
2022-12-27T01:30:01.748Z,1
2022-12-27T01:35:02.524Z,1
2022-12-27T01:40:01.956Z,2
2022-12-27T01:45:01.330Z,2
2022-12-27T01:50:01.806Z,2
2022-12-27T01:55:02.592Z,1
2022-12-27T02:00:02.392Z,2
2022-12-27T02:05:01.742Z,6
2022-12-27T02:10:02.256Z,1
2022-12-27T02:15:01.640Z,2
2022-12-27T02:20:02.250Z,1
2022-12-27T02:25:01.639Z,2
2022-12-27T02:30:02.198Z,1
2022-12-27T02:35:01.711Z,4
2022-12-27T02:40:02.135Z,2
2022-12-27T02:45:01.550Z,2
2022-12-27T02:50:02.094Z,2
2022-12-27T02:55:01.456Z,2
2022-12-27T03:00:01.958Z,1
2022-12-27T03:05:01.751Z,1
2022-12-27T03:10:02.159Z,3
2022-12-27T03:15:01.526Z,3
2022-12-27T03:20:01.974Z,1
2022-12-27T03:25:01.781Z,2
2022-12-27T03:30:02.154Z,0
2022-12-27T03:35:01.533Z,1
2022-12-27T03:40:01.955Z,1
2022-12-27T03:45:01.372Z,2
2022-12-27T03:50:02.184Z,1
2022-12-27T03:55:01.582Z,1
2022-12-27T04:00:01.979Z,0
2022-12-27T04:05:01.454Z,1
2022-12-27T04:10:01.983Z,1
2022-12-27T04:15:01.382Z,1
2022-12-27T04:20:01.857Z,2
2022-12-27T04:25:02.347Z,0
2022-12-27T04:30:01.871Z,2
2022-12-27T04:35:02.368Z,2
2022-12-27T04:40:01.800Z,1
2022-12-27T04:45:02.305Z,1
2022-12-27T04:50:02.086Z,2
2022-12-27T04:55:01.691Z,0
2022-12-27T05:00:02.077Z,0
2022-12-27T05:05:01.876Z,2
2022-12-27T05:10:02.290Z,2
2022-12-27T05:15:02.113Z,1
2022-12-27T05:20:01.977Z,0
2022-12-27T05:25:01.397Z,2
2022-12-27T05:30:02.008Z,1
2022-12-27T05:35:01.807Z,1
2022-12-27T05:40:02.234Z,1
2022-12-27T05:45:01.759Z,1
2022-12-27T05:50:02.150Z,2
2022-12-27T05:55:01.558Z,0
2022-12-27T06:00:01.963Z,1
2022-12-27T06:05:01.762Z,1
2022-12-27T06:10:02.163Z,1
2022-12-27T06:15:01.958Z,1
2022-12-27T06:20:01.826Z,1
2022-12-27T06:25:02.186Z,1
2022-12-27T06:30:01.560Z,1
2022-12-27T06:35:01.917Z,2
2022-12-27T06:40:01.315Z,0
2022-12-27T06:45:02.122Z,1
2022-12-27T06:50:01.481Z,1
2022-12-27T06:55:02.288Z,1
2022-12-27T07:00:01.695Z,0
2022-12-27T07:05:02.169Z,1
2022-12-27T07:10:01.590Z,2
2022-12-27T07:15:01.983Z,1
2022-12-27T07:20:01.547Z,1
2022-12-27T07:25:02.000Z,1
2022-12-27T07:30:01.809Z,1
2022-12-27T07:35:02.596Z,1
2022-12-27T07:40:02.463Z,0
2022-12-27T07:45:02.294Z,0
2022-12-27T07:50:01.786Z,1
2022-12-27T07:55:02.319Z,1
2022-12-27T08:00:01.700Z,1
2022-12-27T08:05:02.502Z,1
2022-12-27T08:10:02.054Z,0
2022-12-27T08:15:02.209Z,1
2022-12-27T08:20:02.068Z,0
2022-12-27T08:25:01.856Z,1
2022-12-27T08:30:02.368Z,0
2022-12-27T08:35:42.124Z,0
2022-12-27T08:40:03.130Z,1
2022-12-27T08:45:01.878Z,1
2022-12-27T08:50:02.233Z,1
2022-12-27T08:55:02.040Z,1
2022-12-27T09:00:01.859Z,2
2022-12-27T09:05:02.351Z,1
2022-12-27T09:10:01.740Z,2
2022-12-27T09:15:02.240Z,1
2022-12-27T09:20:01.768Z,1
2022-12-27T09:25:02.366Z,0
2022-12-27T09:30:01.879Z,1
2022-12-27T09:35:02.384Z,2
2022-12-27T09:40:01.982Z,1
2022-12-27T09:45:01.860Z,0
2022-12-27T09:50:02.719Z,6
2022-12-27T09:55:05.141Z,3
2022-12-27T10:00:02.042Z,3
2022-12-27T10:05:19.704Z,2
2022-12-27T10:10:01.915Z,3
2022-12-27T10:15:02.286Z,3
2022-12-27T10:20:01.705Z,2
2022-12-27T10:25:02.089Z,1
2022-12-27T10:30:02.054Z,2
2022-12-27T10:35:01.569Z,2
2022-12-27T10:40:02.101Z,3
2022-12-27T10:45:01.915Z,2
2022-12-27T10:50:02.295Z,4
2022-12-27T10:55:02.092Z,3
2022-12-27T11:00:01.916Z,1
2022-12-27T11:05:02.700Z,3
2022-12-27T11:10:02.523Z,3
2022-12-27T11:15:02.379Z,2
2022-12-27T11:20:01.819Z,2
2022-12-27T11:25:02.354Z,5
2022-12-27T11:30:01.707Z,2
2022-12-27T11:35:02.072Z,1
2022-12-27T11:40:01.892Z,3
2022-12-27T11:45:02.387Z,2
2022-12-27T11:50:02.186Z,2
2022-12-27T11:55:01.559Z,2
2022-12-27T12:00:01.913Z,1
2022-12-27T12:05:02.388Z,3
2022-12-27T12:10:01.962Z,1
2022-12-27T12:15:01.496Z,2
2022-12-27T12:20:02.372Z,2
2022-12-27T12:25:01.748Z,1
2022-12-27T12:30:02.531Z,2
2022-12-27T12:35:02.011Z,3
2022-12-27T12:40:01.426Z,3
2022-12-27T12:45:01.940Z,2
2022-12-27T12:50:05.513Z,2
2022-12-27T12:55:02.153Z,4
2022-12-27T13:00:02.019Z,2
2022-12-27T13:05:01.827Z,3
2022-12-27T13:10:02.236Z,1
2022-12-27T13:15:01.615Z,4
2022-12-27T13:20:02.166Z,2
2022-12-27T13:25:01.544Z,12
2022-12-27T13:30:06.763Z,2
2022-12-27T13:35:01.957Z,2
2022-12-27T13:40:01.367Z,2
2022-12-27T13:45:02.199Z,1
2022-12-27T13:50:01.711Z,1
2022-12-27T13:55:02.203Z,3
2022-12-27T14:00:02.001Z,3
2022-12-27T14:05:01.405Z,2
2022-12-27T14:10:02.269Z,4
2022-12-27T14:15:01.644Z,3
2022-12-27T14:20:02.057Z,2
2022-12-27T14:25:01.448Z,2
2022-12-27T14:30:01.952Z,2
2022-12-27T14:35:01.330Z,2
2022-12-27T14:40:02.140Z,2
2022-12-27T14:45:01.987Z,1
2022-12-27T14:50:01.351Z,3
2022-12-27T14:55:02.187Z,3
2022-12-27T15:00:01.756Z,2
2022-12-27T15:05:02.239Z,3
2022-12-27T15:10:01.627Z,3
2022-12-27T15:15:02.426Z,3
2022-12-27T15:20:02.407Z,2
2022-12-27T15:25:01.955Z,4
2022-12-27T15:30:01.653Z,3
2022-12-27T15:35:02.498Z,3
2022-12-27T15:40:02.427Z,2
2022-12-27T15:45:01.942Z,5
2022-12-27T15:50:02.343Z,4
2022-12-27T15:55:01.841Z,4
2022-12-27T16:00:02.669Z,5
2022-12-27T16:05:02.235Z,3
2022-12-27T16:10:01.644Z,4
2022-12-27T16:15:02.430Z,7
2022-12-27T16:20:01.859Z,4
2022-12-27T16:25:02.373Z,5
2022-12-27T16:30:01.785Z,3
2022-12-27T16:35:02.282Z,3
2022-12-27T16:40:02.119Z,9
2022-12-27T16:45:01.633Z,4
2022-12-27T16:50:02.145Z,14
2022-12-27T16:55:01.929Z,9
2022-12-27T17:00:02.507Z,6
2022-12-27T17:05:01.924Z,6
2022-12-27T17:10:01.759Z,4
2022-12-27T17:15:02.255Z,12
2022-12-27T17:20:02.126Z,7
2022-12-27T17:25:01.611Z,7
2022-12-27T17:30:02.099Z,6
2022-12-27T17:35:01.586Z,9
2022-12-27T17:40:02.133Z,8
2022-12-27T17:45:01.524Z,4
2022-12-27T17:50:01.885Z,6
2022-12-27T17:55:02.685Z,4
2022-12-27T18:00:02.184Z,7
2022-12-27T18:05:01.985Z,12
2022-12-27T18:10:01.497Z,8
2022-12-27T18:15:02.005Z,13
2022-12-27T18:20:01.471Z,13
2022-12-27T18:25:01.974Z,9
2022-12-27T18:30:01.764Z,21
2022-12-27T18:35:02.264Z,12
2022-12-27T18:40:01.643Z,19
2022-12-27T18:45:02.445Z,10
2022-12-27T18:50:01.959Z,6
2022-12-27T18:55:01.762Z,6
2022-12-27T19:00:02.261Z,8
2022-12-27T19:05:02.068Z,16
2022-12-27T19:10:01.924Z,6
2022-12-27T19:15:02.312Z,16
2022-12-27T19:20:02.202Z,10
2022-12-27T19:25:01.999Z,8
2022-12-27T19:30:01.366Z,21
2022-12-27T19:35:02.151Z,15
2022-12-27T19:40:01.999Z,5
2022-12-27T19:45:01.832Z,18
2022-12-27T19:50:02.386Z,13
2022-12-27T19:55:02.237Z,16
2022-12-27T20:00:05.456Z,12
2022-12-27T20:05:02.145Z,4
2022-12-27T20:10:01.998Z,5
2022-12-27T20:15:01.576Z,3
2022-12-27T20:20:02.010Z,5
2022-12-27T20:25:01.825Z,12
2022-12-27T20:30:02.642Z,10
2022-12-27T20:35:02.132Z,5
2022-12-27T20:40:01.659Z,5
2022-12-27T20:45:02.464Z,4
2022-12-27T20:50:02.270Z,8
2022-12-27T20:55:02.114Z,10
2022-12-27T21:00:01.902Z,7
2022-12-27T21:05:02.710Z,5
2022-12-27T21:10:02.352Z,12
2022-12-27T21:15:01.736Z,7
2022-12-27T21:20:02.203Z,6
2022-12-27T21:25:01.768Z,5
2022-12-27T21:30:02.322Z,9
2022-12-27T21:35:01.828Z,9
2022-12-27T21:40:02.668Z,5
2022-12-27T21:45:02.461Z,7
2022-12-27T21:50:01.991Z,8
2022-12-27T21:55:01.352Z,3
2022-12-27T22:00:02.177Z,6
2022-12-27T22:05:02.079Z,4
2022-12-27T22:10:01.694Z,16
2022-12-27T22:15:02.105Z,17
2022-12-27T22:20:01.822Z,9
2022-12-27T22:25:02.297Z,21
2022-12-27T22:30:02.085Z,9
2022-12-27T22:35:01.885Z,7
2022-12-27T22:40:02.731Z,19
2022-12-27T22:45:02.073Z,6
2022-12-27T22:50:01.430Z,14
2022-12-27T22:55:05.252Z,14
2022-12-27T23:00:02.805Z,6
2022-12-27T23:05:02.219Z,4
2022-12-27T23:10:01.868Z,7
2022-12-27T23:15:02.303Z,7
2022-12-27T23:20:01.854Z,6
2022-12-27T23:25:02.245Z,4
2022-12-27T23:30:02.036Z,4
2022-12-27T23:35:01.525Z,10
2022-12-27T23:40:02.113Z,6
2022-12-27T23:45:01.621Z,4
2022-12-27T23:50:02.129Z,7
2022-12-27T23:55:01.612Z,9
